Time,TemperatureF,DewpointF,PressureIn,WindDirection,WindDirectionDegrees,WindSpeedMPH,WindSpeedGustMPH,Humidity,HourlyPrecipIn,Conditions,Clouds,dailyrainin,SoftwareType,DateUTC
2013-01-07 00:00:00,34.5,30.7,29.94,NE,45,2.0,2.0,86,0.00,,,0.00,meteohub,2013-01-07 05:00:00,
2013-01-07 00:01:00,34.5,30.7,29.94,NE,45,2.0,2.0,86,0.00,,,0.00,meteohub,2013-01-07 05:01:00,
2013-01-07 00:02:00,34.5,30.7,29.94,NE,45,2.0,2.0,86,0.00,,,0.00,meteohub,2013-01-07 05:02:00,
2013-01-07 00:07:00,34.7,30.7,29.94,SW,225,2.0,2.0,85,0.00,,,0.00,meteohub,2013-01-07 05:07:00,
2013-01-07 00:12:00,34.9,30.9,29.95,North,0,3.0,3.0,85,0.00,,,0.00,meteohub,2013-01-07 05:12:00,
2013-01-07 00:17:00,34.9,30.9,29.94,North,0,1.0,3.0,85,0.00,,,0.00,meteohub,2013-01-07 05:17:00,
2013-01-07 00:22:00,34.9,30.9,29.94,North,0,1.0,3.0,85,0.00,,,0.00,meteohub,2013-01-07 05:22:00,
2013-01-07 00:27:00,35.1,30.7,29.95,NW,315,2.0,3.0,84,0.00,,,0.00,meteohub,2013-01-07 05:27:00,
2013-01-07 00:32:00,34.9,30.6,29.95,West,270,0.0,3.0,84,0.00,,,0.00,meteohub,2013-01-07 05:32:00,
2013-01-07 00:37:00,34.7,30.4,29.95,NW,315,2.0,3.0,84,0.00,,,0.00,meteohub,2013-01-07 05:37:00,
2013-01-07 00:42:00,34.9,30.9,29.96,North,0,2.0,3.0,85,0.00,,,0.00,meteohub,2013-01-07 05:42:00,
2013-01-07 00:47:00,34.7,30.7,29.95,North,0,2.0,3.0,85,0.00,,,0.00,meteohub,2013-01-07 05:47:00,
2013-01-07 00:52:00,34.7,30.7,29.95,North,0,2.0,3.0,85,0.00,,,0.00,meteohub,2013-01-07 05:52:00,
2013-01-07 00:57:00,34.5,30.6,29.95,West,270,2.0,3.0,85,0.00,,,0.00,meteohub,2013-01-07 05:57:00,
2013-01-07 01:02:00,34.5,30.7,29.96,North,0,2.0,3.0,86,0.00,,,0.00,meteohub,2013-01-07 06:02:00,
2013-01-07 01:07:00,34.5,30.7,29.96,West,270,3.0,3.0,86,0.00,,,0.00,meteohub,2013-01-07 06:07:00,
2013-01-07 01:12:00,34.2,30.4,29.96,East,90,2.0,3.0,86,0.00,,,0.00,meteohub,2013-01-07 06:12:00,
2013-01-07 01:17:00,34.0,30.2,29.96,NW,315,2.0,3.0,86,0.00,,,0.00,meteohub,2013-01-07 06:17:00,
2013-01-07 01:22:00,33.4,30.0,29.96,SW,225,0.0,3.0,87,0.00,,,0.00,meteohub,2013-01-07 06:22:00,
2013-01-07 01:27:00,33.1,29.7,29.96,East,90,1.0,2.0,87,0.00,,,0.00,meteohub,2013-01-07 06:27:00,
2013-01-07 01:32:00,32.9,29.7,29.96,WSW,248,2.0,2.0,88,0.00,,,0.00,meteohub,2013-01-07 06:32:00,
2013-01-07 01:37:00,33.1,30.2,29.96,NW,315,0.0,2.0,89,0.00,,,0.00,meteohub,2013-01-07 06:37:00,
2013-01-07 01:42:00,33.1,30.2,29.97,SE,135,2.0,2.0,89,0.00,,,0.00,meteohub,2013-01-07 06:42:00,
2013-01-07 01:47:00,33.3,30.4,29.97,SW,225,0.0,2.0,89,0.00,,,0.00,meteohub,2013-01-07 06:47:00,
2013-01-07 01:52:00,33.3,30.4,29.97,SW,225,0.0,2.0,89,0.00,,,0.00,meteohub,2013-01-07 06:52:00,
2013-01-07 01:57:00,33.1,30.2,29.97,East,90,0.0,2.0,89,0.00,,,0.00,meteohub,2013-01-07 06:57:00,
2013-01-07 02:02:00,32.9,30.0,29.98,NW,315,0.0,2.0,89,0.00,,,0.00,meteohub,2013-01-07 07:02:00,
2013-01-07 02:07:00,32.7,30.2,29.98,SW,225,0.0,2.0,90,0.00,,,0.00,meteohub,2013-01-07 07:07:00,
2013-01-07 02:12:00,32.7,30.2,29.97,West,270,1.0,2.0,90,0.00,,,0.00,meteohub,2013-01-07 07:12:00,
2013-01-07 02:17:00,32.5,30.2,29.98,SW,225,0.0,1.0,91,0.00,,,0.00,meteohub,2013-01-07 07:17:00,
2013-01-07 02:22:00,32.7,30.7,29.97,SW,225,0.0,2.0,92,0.00,,,0.00,meteohub,2013-01-07 07:22:00,
2013-01-07 02:27:00,32.9,30.9,29.98,North,0,1.0,2.0,92,0.00,,,0.00,meteohub,2013-01-07 07:27:00,
2013-01-07 02:32:00,32.9,30.6,29.98,West,270,0.0,2.0,91,0.00,,,0.00,meteohub,2013-01-07 07:32:00,
2013-01-07 02:37:00,32.7,30.4,29.99,SW,225,1.0,2.0,91,0.00,,,0.00,meteohub,2013-01-07 07:37:00,
2013-01-07 02:42:00,32.7,30.7,29.99,SE,135,1.0,2.0,92,0.00,,,0.00,meteohub,2013-01-07 07:42:00,
2013-01-07 02:47:00,32.7,30.9,29.98,SE,135,2.0,2.0,93,0.00,,,0.00,meteohub,2013-01-07 07:47:00,
2013-01-07 02:52:00,32.9,31.1,29.99,South,180,2.0,2.0,93,0.00,,,0.00,meteohub,2013-01-07 07:52:00,
2013-01-07 02:57:00,33.1,31.1,29.99,North,0,0.0,2.0,92,0.00,,,0.00,meteohub,2013-01-07 07:57:00,
2013-01-07 03:02:00,32.5,30.6,29.99,South,180,0.0,2.0,92,0.00,,,0.00,meteohub,2013-01-07 08:02:00,
2013-01-07 03:07:00,32.2,30.4,29.99,South,180,2.0,2.0,93,0.00,,,0.00,meteohub,2013-01-07 08:07:00,
2013-01-07 03:12:00,32.0,30.7,29.99,SE,135,1.0,2.0,95,0.00,,,0.00,meteohub,2013-01-07 08:12:00,
2013-01-07 03:17:00,31.5,30.0,29.99,SW,225,0.0,2.0,94,0.00,,,0.00,meteohub,2013-01-07 08:17:00,
2013-01-07 03:22:00,31.3,30.0,29.99,West,270,2.0,2.0,95,0.00,,,0.00,meteohub,2013-01-07 08:22:00,
2013-01-07 03:27:00,31.3,30.0,29.99,West,270,0.0,2.0,95,0.00,,,0.00,meteohub,2013-01-07 08:27:00,
2013-01-07 03:32:00,31.1,29.8,29.99,NW,315,0.0,2.0,95,0.00,,,0.00,meteohub,2013-01-07 08:32:00,
2013-01-07 03:37:00,30.9,29.8,29.99,West,270,0.0,2.0,96,0.00,,,0.00,meteohub,2013-01-07 08:37:00,
2013-01-07 03:42:00,30.9,29.8,29.99,North,0,0.0,1.0,96,0.00,,,0.00,meteohub,2013-01-07 08:42:00,
2013-01-07 03:47:00,30.7,29.7,30.00,West,270,0.0,1.0,96,0.00,,,0.00,meteohub,2013-01-07 08:47:00,
2013-01-07 03:52:00,30.9,30.2,30.00,NW,315,2.0,2.0,97,0.00,,,0.00,meteohub,2013-01-07 08:52:00,
2013-01-07 03:57:00,30.7,30.0,30.00,NW,315,1.0,2.0,97,0.00,,,0.00,meteohub,2013-01-07 08:57:00,
2013-01-07 04:02:00,30.6,30.0,30.00,NW,315,1.0,2.0,98,0.00,,,0.00,meteohub,2013-01-07 09:02:00,
2013-01-07 04:07:00,30.7,30.6,30.01,NW,315,2.0,2.0,99,0.00,,,0.00,meteohub,2013-01-07 09:07:00,
2013-01-07 04:12:00,31.1,30.9,30.01,NW,315,2.0,2.0,99,0.00,,,0.00,meteohub,2013-01-07 09:12:00,
2013-01-07 04:17:00,31.3,31.1,30.01,North,0,2.0,2.0,99,0.00,,,0.00,meteohub,2013-01-07 09:17:00,
2013-01-07 04:22:00,31.5,31.3,30.01,South,180,0.0,2.0,99,0.00,,,0.00,meteohub,2013-01-07 09:22:00,
2013-01-07 04:27:00,31.6,31.5,30.01,South,180,1.0,2.0,99,0.00,,,0.00,meteohub,2013-01-07 09:27:00,
2013-01-07 04:32:00,31.6,31.5,30.01,North,0,2.0,2.0,99,0.00,,,0.00,meteohub,2013-01-07 09:32:00,
2013-01-07 04:37:00,31.5,30.9,30.02,North,0,0.0,2.0,98,0.00,,,0.00,meteohub,2013-01-07 09:37:00,
2013-01-07 04:42:00,31.1,30.6,30.02,South,180,0.0,2.0,98,0.00,,,0.00,meteohub,2013-01-07 09:42:00,
2013-01-07 04:47:00,31.3,31.1,30.02,South,180,2.0,2.0,99,0.00,,,0.00,meteohub,2013-01-07 09:47:00,
2013-01-07 04:52:00,31.3,31.1,30.02,South,180,1.0,2.0,99,0.00,,,0.00,meteohub,2013-01-07 09:52:00,
2013-01-07 04:57:00,31.1,30.9,30.02,South,180,2.0,2.0,99,0.00,,,0.00,meteohub,2013-01-07 09:57:00,
2013-01-07 05:02:00,31.1,30.9,30.02,South,180,2.0,2.0,99,0.00,,,0.00,meteohub,2013-01-07 10:02:00,
2013-01-07 05:07:00,31.1,30.9,30.03,SW,225,2.0,2.0,99,0.00,,,0.00,meteohub,2013-01-07 10:07:00,
2013-01-07 05:12:00,31.5,31.3,30.03,SW,225,2.0,2.0,99,0.00,,,0.00,meteohub,2013-01-07 10:12:00,
2013-01-07 05:17:00,31.5,31.3,30.04,South,180,1.0,2.0,99,0.00,,,0.00,meteohub,2013-01-07 10:17:00,
2013-01-07 05:22:00,31.3,31.1,30.04,South,180,1.0,2.0,99,0.00,,,0.00,meteohub,2013-01-07 10:22:00,
2013-01-07 05:27:00,31.1,30.9,30.04,South,180,0.0,2.0,99,0.00,,,0.00,meteohub,2013-01-07 10:27:00,
2013-01-07 05:32:00,31.1,30.9,30.04,South,180,1.0,2.0,99,0.00,,,0.00,meteohub,2013-01-07 10:32:00,
2013-01-07 05:37:00,31.1,30.9,30.04,SSW,203,2.0,2.0,99,0.00,,,0.00,meteohub,2013-01-07 10:37:00,
2013-01-07 05:42:00,30.9,30.7,30.05,South,180,0.0,2.0,99,0.00,,,0.00,meteohub,2013-01-07 10:42:00,
2013-01-07 05:47:00,30.4,30.2,30.06,West,270,0.0,2.0,99,0.00,,,0.00,meteohub,2013-01-07 10:47:00,
2013-01-07 05:52:00,30.2,30.0,30.06,North,0,0.0,2.0,99,0.00,,,0.00,meteohub,2013-01-07 10:52:00,
2013-01-07 05:57:00,30.2,30.0,30.06,North,0,0.0,1.0,99,0.00,,,0.00,meteohub,2013-01-07 10:57:00,
2013-01-07 06:02:00,29.7,29.5,30.06,NE,45,0.0,1.0,99,0.00,,,0.00,meteohub,2013-01-07 11:02:00,
2013-01-07 06:07:00,29.3,29.1,30.07,NE,45,0.0,0.0,99,0.00,,,0.00,meteohub,2013-01-07 11:07:00,
2013-01-07 06:12:00,29.3,29.1,30.07,SE,135,0.0,2.0,99,0.00,,,0.00,meteohub,2013-01-07 11:12:00,
2013-01-07 06:17:00,29.5,29.3,30.07,South,180,0.0,2.0,99,0.00,,,0.00,meteohub,2013-01-07 11:17:00,
2013-01-07 06:22:00,29.7,29.5,30.08,SW,225,0.0,1.0,99,0.00,,,0.00,meteohub,2013-01-07 11:22:00,
2013-01-07 06:27:00,30.0,29.8,30.08,South,180,0.0,1.0,99,0.00,,,0.00,meteohub,2013-01-07 11:27:00,
2013-01-07 06:32:00,30.0,29.8,30.08,South,180,0.0,1.0,99,0.00,,,0.00,meteohub,2013-01-07 11:32:00,
2013-01-07 06:37:00,30.2,30.0,30.08,SW,225,2.0,2.0,99,0.00,,,0.00,meteohub,2013-01-07 11:37:00,
2013-01-07 06:42:00,30.7,30.6,30.09,SW,225,2.0,2.0,99,0.00,,,0.00,meteohub,2013-01-07 11:42:00,
2013-01-07 06:47:00,30.9,30.7,30.08,South,180,1.0,2.0,99,0.00,,,0.00,meteohub,2013-01-07 11:47:00,
2013-01-07 06:52:00,31.1,30.9,30.09,South,180,0.0,2.0,99,0.00,,,0.00,meteohub,2013-01-07 11:52:00,
2013-01-07 06:57:00,31.3,31.1,30.09,South,180,2.0,2.0,99,0.00,,,0.00,meteohub,2013-01-07 11:57:00,
2013-01-07 07:02:00,31.5,31.3,30.10,SW,225,2.0,2.0,99,0.00,,,0.00,meteohub,2013-01-07 12:02:00,
2013-01-07 07:07:00,31.8,31.6,30.10,South,180,1.0,2.0,99,0.00,,,0.00,meteohub,2013-01-07 12:07:00,
2013-01-07 07:12:00,32.0,31.8,30.11,South,180,0.0,2.0,99,0.00,,,0.00,meteohub,2013-01-07 12:12:00,
2013-01-07 07:17:00,32.0,31.8,30.11,South,180,0.0,2.0,99,0.00,,,0.00,meteohub,2013-01-07 12:17:00,
2013-01-07 07:22:00,32.0,31.8,30.11,South,180,0.0,2.0,99,0.00,,,0.00,meteohub,2013-01-07 12:22:00,
2013-01-07 07:27:00,32.2,32.0,30.12,NW,315,0.0,1.0,99,0.00,,,0.00,meteohub,2013-01-07 12:27:00,
2013-01-07 07:32:00,32.0,31.8,30.12,South,180,0.0,0.0,99,0.00,,,0.00,meteohub,2013-01-07 12:32:00,
2013-01-07 07:37:00,32.2,32.0,30.12,SW,225,1.0,0.0,99,0.00,,,0.00,meteohub,2013-01-07 12:37:00,
2013-01-07 07:42:00,32.2,32.0,30.12,SW,225,2.0,2.0,99,0.00,,,0.00,meteohub,2013-01-07 12:42:00,
2013-01-07 07:47:00,32.4,32.2,30.12,NE,45,2.0,2.0,99,0.00,,,0.00,meteohub,2013-01-07 12:47:00,
2013-01-07 07:52:00,32.2,32.0,30.12,NE,45,0.0,2.0,99,0.00,,,0.00,meteohub,2013-01-07 12:52:00,
2013-01-07 07:57:00,32.2,32.0,30.13,SW,225,2.0,2.0,99,0.00,,,0.00,meteohub,2013-01-07 12:57:00,
2013-01-07 08:02:00,32.5,32.4,30.14,SW,225,0.0,2.0,99,0.00,,,0.00,meteohub,2013-01-07 13:02:00,
2013-01-07 08:07:00,32.5,32.4,30.13,SW,225,0.0,2.0,99,0.00,,,0.00,meteohub,2013-01-07 13:07:00,
2013-01-07 08:12:00,32.5,32.4,30.14,SW,225,0.0,2.0,99,0.00,,,0.00,meteohub,2013-01-07 13:12:00,
2013-01-07 08:17:00,32.7,32.5,30.14,SW,225,1.0,1.0,99,0.00,,,0.00,meteohub,2013-01-07 13:17:00,
2013-01-07 08:22:00,33.3,33.1,30.14,South,180,0.0,1.0,99,0.00,,,0.00,meteohub,2013-01-07 13:22:00,
2013-01-07 08:27:00,33.8,33.6,30.14,South,180,2.0,2.0,99,0.00,,,0.00,meteohub,2013-01-07 13:27:00,
2013-01-07 08:32:00,34.3,33.6,30.14,South,180,0.0,2.0,97,0.00,,,0.00,meteohub,2013-01-07 13:32:00,
2013-01-07 08:37:00,34.7,33.6,30.14,NW,315,0.0,2.0,96,0.00,,,0.00,meteohub,2013-01-07 13:37:00,
2013-01-07 08:42:00,35.1,34.0,30.15,North,0,2.0,2.0,96,0.00,,,0.00,meteohub,2013-01-07 13:42:00,
2013-01-07 08:47:00,35.8,34.5,30.15,NW,315,1.0,2.0,95,0.00,,,0.00,meteohub,2013-01-07 13:47:00,
2013-01-07 08:52:00,36.0,34.3,30.16,South,180,0.0,2.0,94,0.00,,,0.00,meteohub,2013-01-07 13:52:00,
2013-01-07 08:57:00,36.3,34.0,30.16,South,180,2.0,2.0,91,0.00,,,0.00,meteohub,2013-01-07 13:57:00,
2013-01-07 09:02:00,37.2,34.9,30.16,NE,45,0.0,2.0,91,0.00,,,0.00,meteohub,2013-01-07 14:02:00,
2013-01-07 09:07:00,38.1,35.8,30.17,East,90,0.0,2.0,91,0.00,,,0.00,meteohub,2013-01-07 14:07:00,
2013-01-07 09:12:00,38.8,35.2,30.17,NE,45,1.0,4.0,87,0.00,,,0.00,meteohub,2013-01-07 14:12:00,
2013-01-07 09:17:00,39.6,35.8,30.17,East,90,2.0,4.0,86,0.00,,,0.00,meteohub,2013-01-07 14:17:00,
2013-01-07 09:22:00,38.7,34.2,30.18,NW,315,5.0,5.0,84,0.00,,,0.00,meteohub,2013-01-07 14:22:00,
2013-01-07 09:27:00,39.4,34.7,30.18,NE,45,4.0,5.0,83,0.00,,,0.00,meteohub,2013-01-07 14:27:00,
2013-01-07 09:32:00,39.0,34.5,30.18,West,270,2.0,5.0,84,0.00,,,0.00,meteohub,2013-01-07 14:32:00,
2013-01-07 09:37:00,39.9,35.2,30.18,North,0,2.0,5.0,83,0.00,,,0.00,meteohub,2013-01-07 14:37:00,
2013-01-07 09:42:00,40.5,35.4,30.19,West,270,5.0,5.0,82,0.00,,,0.00,meteohub,2013-01-07 14:42:00,
2013-01-07 09:47:00,41.2,35.4,30.19,North,0,2.0,5.0,80,0.00,,,0.00,meteohub,2013-01-07 14:47:00,
2013-01-07 09:52:00,41.5,35.2,30.19,NW,315,4.0,5.0,78,0.00,,,0.00,meteohub,2013-01-07 14:52:00,
2013-01-07 09:57:00,42.1,35.1,30.19,West,270,3.0,5.0,76,0.00,,,0.00,meteohub,2013-01-07 14:57:00,
2013-01-07 10:02:00,41.9,34.2,30.20,North,0,4.0,5.0,74,0.00,,,0.00,meteohub,2013-01-07 15:02:00,
2013-01-07 10:07:00,42.1,33.8,30.21,NW,315,6.0,6.0,72,0.00,,,0.00,meteohub,2013-01-07 15:07:00,
2013-01-07 10:12:00,41.9,33.3,30.20,North,0,3.0,8.0,71,0.00,,,0.00,meteohub,2013-01-07 15:12:00,
2013-01-07 10:17:00,42.1,33.4,30.20,SW,225,8.0,8.0,71,0.00,,,0.00,meteohub,2013-01-07 15:17:00,
2013-01-07 10:22:00,42.1,33.1,30.20,SW,225,4.0,8.0,70,0.00,,,0.00,meteohub,2013-01-07 15:22:00,
2013-01-07 10:27:00,42.6,32.7,30.21,North,0,4.0,8.0,68,0.00,,,0.00,meteohub,2013-01-07 15:27:00,
2013-01-07 10:32:00,42.4,32.2,30.22,West,270,5.0,8.0,67,0.00,,,0.00,meteohub,2013-01-07 15:32:00,
2013-01-07 10:37:00,42.8,32.2,30.21,NNE,23,4.0,11.0,66,0.00,,,0.00,meteohub,2013-01-07 15:37:00,
2013-01-07 10:42:00,43.2,32.2,30.21,North,0,5.0,11.0,65,0.00,,,0.00,meteohub,2013-01-07 15:42:00,
2013-01-07 10:47:00,43.0,31.6,30.22,North,0,4.0,11.0,64,0.00,,,0.00,meteohub,2013-01-07 15:47:00,
2013-01-07 10:52:00,43.2,31.1,30.22,NE,45,5.0,8.0,62,0.00,,,0.00,meteohub,2013-01-07 15:52:00,
2013-01-07 10:57:00,42.6,30.6,30.22,North,0,3.0,8.0,62,0.00,,,0.00,meteohub,2013-01-07 15:57:00,
2013-01-07 11:02:00,42.4,31.1,30.21,North,0,2.0,9.0,64,0.00,,,0.00,meteohub,2013-01-07 16:02:00,
2013-01-07 11:07:00,42.4,30.0,30.21,NW,315,4.0,11.0,61,0.00,,,0.00,meteohub,2013-01-07 16:07:00,
2013-01-07 11:12:00,43.2,30.6,30.21,North,0,4.0,11.0,61,0.00,,,0.00,meteohub,2013-01-07 16:12:00,
2013-01-07 11:17:00,43.2,30.2,30.21,NW,315,4.0,11.0,60,0.00,,,0.00,meteohub,2013-01-07 16:17:00,
2013-01-07 11:22:00,43.5,29.7,30.21,North,0,8.0,8.0,58,0.00,,,0.00,meteohub,2013-01-07 16:22:00,
2013-01-07 11:27:00,44.2,30.4,30.21,NW,315,4.0,8.0,58,0.00,,,0.00,meteohub,2013-01-07 16:27:00,
2013-01-07 11:32:00,45.1,30.7,30.21,North,0,3.0,8.0,57,0.00,,,0.00,meteohub,2013-01-07 16:32:00,
2013-01-07 11:37:00,45.1,30.4,30.21,NE,45,6.0,8.0,56,0.00,,,0.00,meteohub,2013-01-07 16:37:00,
2013-01-07 11:42:00,45.3,31.5,30.21,NE,45,4.0,9.0,58,0.00,,,0.00,meteohub,2013-01-07 16:42:00,
2013-01-07 11:47:00,43.5,29.3,30.21,NE,45,6.0,9.0,57,0.00,,,0.00,meteohub,2013-01-07 16:47:00,
2013-01-07 11:52:00,43.3,30.0,30.22,North,0,6.0,11.0,59,0.00,,,0.00,meteohub,2013-01-07 16:52:00,
2013-01-07 11:57:00,43.3,29.5,30.21,West,270,4.0,11.0,58,0.00,,,0.00,meteohub,2013-01-07 16:57:00,
2013-01-07 12:02:00,42.3,29.8,30.21,NE,45,4.0,11.0,61,0.00,,,0.00,meteohub,2013-01-07 17:02:00,
2013-01-07 12:07:00,42.4,29.1,30.22,West,270,5.0,8.0,59,0.00,,,0.00,meteohub,2013-01-07 17:07:00,
2013-01-07 12:12:00,42.1,28.8,30.22,North,0,4.0,8.0,59,0.00,,,0.00,meteohub,2013-01-07 17:12:00,
2013-01-07 12:17:00,41.9,28.9,30.22,NE,45,4.0,7.0,60,0.00,,,0.00,meteohub,2013-01-07 17:17:00,
2013-01-07 12:22:00,41.7,29.3,30.23,North,0,3.0,7.0,61,0.00,,,0.00,meteohub,2013-01-07 17:22:00,
2013-01-07 12:27:00,41.9,29.5,30.23,NW,315,3.0,7.0,61,0.00,,,0.00,meteohub,2013-01-07 17:27:00,
2013-01-07 12:32:00,41.7,29.3,30.23,North,0,4.0,7.0,61,0.00,,,0.00,meteohub,2013-01-07 17:32:00,
2013-01-07 12:37:00,41.5,28.8,30.23,NW,315,4.0,6.0,60,0.00,,,0.00,meteohub,2013-01-07 17:37:00,
2013-01-07 12:42:00,41.7,29.7,30.22,NW,315,8.0,8.0,62,0.00,,,0.00,meteohub,2013-01-07 17:42:00,
2013-01-07 12:47:00,41.7,29.3,30.23,NW,315,4.0,8.0,61,0.00,,,0.00,meteohub,2013-01-07 17:47:00,
2013-01-07 12:52:00,41.9,28.9,30.23,NW,315,3.0,8.0,60,0.00,,,0.00,meteohub,2013-01-07 17:52:00,
2013-01-07 12:56:00,42.1,29.7,30.24,North,0,4.0,8.0,61,0.00,,,0.00,meteohub,2013-01-07 17:56:00,
2013-01-07 13:02:00,42.3,28.9,30.24,North,0,7.0,7.0,59,0.00,,,0.00,meteohub,2013-01-07 18:02:00,
2013-01-07 13:07:00,42.3,29.3,30.24,NW,315,5.0,7.0,60,0.00,,,0.00,meteohub,2013-01-07 18:07:00,
2013-01-07 13:12:00,42.8,29.5,30.24,West,270,5.0,7.0,59,0.00,,,0.00,meteohub,2013-01-07 18:12:00,
2013-01-07 13:17:00,42.6,28.4,30.24,NE,45,5.0,7.0,57,0.00,,,0.00,meteohub,2013-01-07 18:17:00,
2013-01-07 13:22:00,42.6,29.3,30.24,NE,45,4.0,5.0,59,0.00,,,0.00,meteohub,2013-01-07 18:22:00,
2013-01-07 13:27:00,42.8,28.6,30.24,NW,315,4.0,5.0,57,0.00,,,0.00,meteohub,2013-01-07 18:27:00,
2013-01-07 13:32:00,42.8,29.1,30.24,North,0,2.0,5.0,58,0.00,,,0.00,meteohub,2013-01-07 18:32:00,
2013-01-07 13:37:00,42.3,28.0,30.24,West,270,2.0,5.0,57,0.00,,,0.00,meteohub,2013-01-07 18:37:00,
2013-01-07 13:42:00,41.7,28.0,30.25,NW,315,3.0,8.0,58,0.00,,,0.00,meteohub,2013-01-07 18:42:00,
2013-01-07 13:47:00,41.2,27.9,30.25,NW,315,2.0,8.0,59,0.00,,,0.00,meteohub,2013-01-07 18:47:00,
2013-01-07 13:52:00,41.0,27.9,30.25,NE,45,5.0,8.0,59,0.00,,,0.00,meteohub,2013-01-07 18:52:00,
2013-01-07 13:57:00,41.0,27.9,30.25,North,0,4.0,5.0,59,0.00,,,0.00,meteohub,2013-01-07 18:57:00,
2013-01-07 14:02:00,40.8,28.4,30.25,NW,315,3.0,5.0,61,0.00,,,0.00,meteohub,2013-01-07 19:02:00,
2013-01-07 14:07:00,40.5,27.3,30.25,NW,315,4.0,7.0,59,0.00,,,0.00,meteohub,2013-01-07 19:07:00,
2013-01-07 14:12:00,40.5,27.3,30.25,NW,315,3.0,7.0,59,0.00,,,0.00,meteohub,2013-01-07 19:12:00,
2013-01-07 14:17:00,40.3,27.1,30.25,North,0,4.0,7.0,59,0.00,,,0.00,meteohub,2013-01-07 19:17:00,
2013-01-07 14:22:00,40.1,27.3,30.25,West,270,1.0,6.0,60,0.00,,,0.00,meteohub,2013-01-07 19:22:00,
2013-01-07 14:27:00,40.3,27.5,30.26,NW,315,4.0,6.0,60,0.00,,,0.00,meteohub,2013-01-07 19:27:00,
2013-01-07 14:32:00,40.1,27.3,30.26,NW,315,3.0,4.0,60,0.00,,,0.00,meteohub,2013-01-07 19:32:00,
2013-01-07 14:37:00,39.9,27.5,30.26,NW,315,3.0,4.0,61,0.00,,,0.00,meteohub,2013-01-07 19:37:00,
2013-01-07 14:42:00,39.9,27.5,30.26,North,0,4.0,4.0,61,0.00,,,0.00,meteohub,2013-01-07 19:42:00,
2013-01-07 14:47:00,39.7,27.0,30.26,North,0,4.0,4.0,60,0.00,,,0.00,meteohub,2013-01-07 19:47:00,
2013-01-07 14:52:00,39.7,27.0,30.26,NW,315,4.0,5.0,60,0.00,,,0.00,meteohub,2013-01-07 19:52:00,
2013-01-07 14:57:00,39.7,27.0,30.26,North,0,4.0,5.0,60,0.00,,,0.00,meteohub,2013-01-07 19:57:00,
2013-01-07 15:02:00,39.7,27.0,30.26,North,0,2.0,5.0,60,0.00,,,0.00,meteohub,2013-01-07 20:02:00,
2013-01-07 15:07:00,39.6,26.8,30.27,NE,45,3.0,4.0,60,0.00,,,0.00,meteohub,2013-01-07 20:07:00,
2013-01-07 15:12:00,39.2,26.4,30.26,North,0,2.0,5.0,60,0.00,,,0.00,meteohub,2013-01-07 20:12:00,
2013-01-07 15:17:00,39.0,26.2,30.27,North,0,2.0,5.0,60,0.00,,,0.00,meteohub,2013-01-07 20:17:00,
2013-01-07 15:19:00,39.0,26.2,30.27,NW,315,1.0,5.0,60,0.00,,,0.00,meteohub,2013-01-07 20:19:00,
2013-01-07 15:24:00,39.0,26.2,30.27,West,270,2.0,5.0,60,0.00,,,0.00,meteohub,2013-01-07 20:24:00,
2013-01-07 15:29:00,38.8,26.1,30.27,West,270,2.0,3.0,60,0.00,,,0.00,meteohub,2013-01-07 20:29:00,
2013-01-07 15:34:00,38.8,26.1,30.28,NW,315,0.0,2.0,60,0.00,,,0.00,meteohub,2013-01-07 20:34:00,
2013-01-07 15:39:00,38.5,26.2,30.28,NW,315,1.0,2.0,61,0.00,,,0.00,meteohub,2013-01-07 20:39:00,
2013-01-07 15:44:00,38.3,26.1,30.28,NW,315,1.0,2.0,61,0.00,,,0.00,meteohub,2013-01-07 20:44:00,
2013-01-07 15:49:00,38.1,25.9,30.28,West,270,0.0,2.0,61,0.00,,,0.00,meteohub,2013-01-07 20:49:00,
2013-01-07 15:54:00,37.8,25.5,30.29,SE,135,0.0,2.0,61,0.00,,,0.00,meteohub,2013-01-07 20:54:00,
2013-01-07 15:59:00,37.4,25.5,30.29,NW,315,2.0,2.0,62,0.00,,,0.00,meteohub,2013-01-07 20:59:00,
2013-01-07 16:04:00,37.0,25.7,30.29,South,180,2.0,2.0,63,0.00,,,0.00,meteohub,2013-01-07 21:04:00,
2013-01-07 16:09:00,36.9,25.5,30.28,SW,225,0.0,2.0,63,0.00,,,0.00,meteohub,2013-01-07 21:09:00,
2013-01-07 16:14:00,36.9,25.9,30.29,SW,225,2.0,2.0,64,0.00,,,0.00,meteohub,2013-01-07 21:14:00,
2013-01-07 16:19:00,36.5,25.5,30.29,SW,225,2.0,2.0,64,0.00,,,0.00,meteohub,2013-01-07 21:19:00,
2013-01-07 16:24:00,36.1,26.2,30.29,South,180,1.0,2.0,67,0.00,,,0.00,meteohub,2013-01-07 21:24:00,
2013-01-07 16:30:00,35.8,25.9,30.30,South,180,2.0,2.0,67,0.00,,,0.00,meteohub,2013-01-07 21:30:00,
2013-01-07 16:35:00,35.2,25.7,30.30,SW,225,2.0,2.0,68,0.00,,,0.00,meteohub,2013-01-07 21:35:00,
2013-01-07 16:40:00,35.1,25.5,30.30,SW,225,2.0,2.0,68,0.00,,,0.00,meteohub,2013-01-07 21:40:00,
2013-01-07 16:45:00,34.9,25.3,30.30,SW,225,2.0,2.0,68,0.00,,,0.00,meteohub,2013-01-07 21:45:00,
2013-01-07 16:50:00,34.5,25.3,30.30,South,180,1.0,2.0,69,0.00,,,0.00,meteohub,2013-01-07 21:50:00,
2013-01-07 16:55:00,34.2,26.4,30.30,South,180,1.0,2.0,73,0.00,,,0.00,meteohub,2013-01-07 21:55:00,
2013-01-07 17:00:00,33.6,26.2,30.30,South,180,1.0,2.0,74,0.00,,,0.00,meteohub,2013-01-07 22:00:00,
2013-01-07 17:05:00,33.3,25.5,30.30,South,180,1.0,2.0,73,0.00,,,0.00,meteohub,2013-01-07 22:05:00,
2013-01-07 17:10:00,33.1,25.7,30.30,South,180,2.0,2.0,74,0.00,,,0.00,meteohub,2013-01-07 22:10:00,
2013-01-07 17:15:00,33.1,25.3,30.31,SW,225,1.0,2.0,73,0.00,,,0.00,meteohub,2013-01-07 22:15:00,
2013-01-07 17:20:00,32.9,25.2,30.31,SW,225,1.0,2.0,73,0.00,,,0.00,meteohub,2013-01-07 22:20:00,
2013-01-07 17:25:00,32.5,24.8,30.32,SW,225,1.0,2.0,73,0.00,,,0.00,meteohub,2013-01-07 22:25:00,
2013-01-07 17:30:00,32.4,24.6,30.31,SW,225,0.0,2.0,73,0.00,,,0.00,meteohub,2013-01-07 22:30:00,
2013-01-07 17:35:00,32.2,25.7,30.31,South,180,1.0,1.0,77,0.00,,,0.00,meteohub,2013-01-07 22:35:00,
2013-01-07 17:40:00,32.0,25.7,30.30,South,180,1.0,2.0,77,0.00,,,0.00,meteohub,2013-01-07 22:40:00,
2013-01-07 17:45:00,31.8,25.7,30.31,South,180,0.0,2.0,78,0.00,,,0.00,meteohub,2013-01-07 22:45:00,
2013-01-07 17:50:00,31.5,25.3,30.30,South,180,0.0,2.0,78,0.00,,,0.00,meteohub,2013-01-07 22:50:00,
2013-01-07 17:55:00,31.1,25.9,30.30,South,180,1.0,1.0,81,0.00,,,0.00,meteohub,2013-01-07 22:55:00,
2013-01-07 18:00:00,31.1,25.9,30.30,South,180,1.0,1.0,81,0.00,,,0.00,meteohub,2013-01-07 23:00:00,
2013-01-07 18:05:00,30.9,26.1,30.30,South,180,2.0,2.0,82,0.00,,,0.00,meteohub,2013-01-07 23:05:00,
2013-01-07 18:10:00,30.9,25.5,30.30,SW,225,2.0,2.0,80,0.00,,,0.00,meteohub,2013-01-07 23:10:00,
2013-01-07 18:15:00,30.9,25.2,30.30,South,180,1.0,2.0,79,0.00,,,0.00,meteohub,2013-01-07 23:15:00,
2013-01-07 18:20:00,30.7,25.3,30.30,SW,225,1.0,2.0,80,0.00,,,0.00,meteohub,2013-01-07 23:20:00,
2013-01-07 18:25:00,30.6,25.2,30.30,South,180,1.0,2.0,80,0.00,,,0.00,meteohub,2013-01-07 23:25:00,
2013-01-07 18:30:00,30.4,25.9,30.31,South,180,1.0,2.0,83,0.00,,,0.00,meteohub,2013-01-07 23:30:00,
2013-01-07 18:35:00,30.2,25.7,30.31,South,180,0.0,2.0,83,0.00,,,0.00,meteohub,2013-01-07 23:35:00,
2013-01-07 18:40:00,29.8,25.3,30.31,South,180,0.0,2.0,83,0.00,,,0.00,meteohub,2013-01-07 23:40:00,
2013-01-07 18:45:00,29.7,24.8,30.31,South,180,0.0,2.0,82,0.00,,,0.00,meteohub,2013-01-07 23:45:00,
2013-01-07 18:50:00,29.3,24.4,30.31,South,180,0.0,1.0,82,0.00,,,0.00,meteohub,2013-01-07 23:50:00,
2013-01-07 18:55:00,28.9,23.9,30.31,South,180,0.0,0.0,81,0.00,,,0.00,meteohub,2013-01-07 23:55:00,
2013-01-07 19:00:00,28.6,23.5,30.31,South,180,0.0,0.0,81,0.00,,,0.00,meteohub,2013-01-08 00:00:00,
2013-01-07 19:05:00,28.4,23.9,30.31,South,180,0.0,0.0,83,0.00,,,0.00,meteohub,2013-01-08 00:05:00,
2013-01-07 19:10:00,28.4,25.0,30.31,South,180,0.0,0.0,87,0.00,,,0.00,meteohub,2013-01-08 00:10:00,
2013-01-07 19:15:00,28.2,24.8,30.31,South,180,0.0,0.0,87,0.00,,,0.00,meteohub,2013-01-08 00:15:00,
2013-01-07 19:20:00,28.4,25.0,30.31,South,180,2.0,2.0,87,0.00,,,0.00,meteohub,2013-01-08 00:20:00,
2013-01-07 19:25:00,28.2,25.2,30.30,SW,225,2.0,2.0,88,0.00,,,0.00,meteohub,2013-01-08 00:25:00,
2013-01-07 19:30:00,28.2,24.6,30.31,South,180,0.0,2.0,86,0.00,,,0.00,meteohub,2013-01-08 00:30:00,
2013-01-07 19:35:00,28.0,24.4,30.30,South,180,0.0,2.0,86,0.00,,,0.00,meteohub,2013-01-08 00:35:00,
2013-01-07 19:40:00,27.7,24.1,30.31,South,180,0.0,2.0,86,0.00,,,0.00,meteohub,2013-01-08 00:40:00,
2013-01-07 19:45:00,27.7,24.1,30.30,South,180,0.0,0.0,86,0.00,,,0.00,meteohub,2013-01-08 00:45:00,
2013-01-07 19:51:00,27.5,23.9,30.31,South,180,0.0,0.0,86,0.00,,,0.00,meteohub,2013-01-08 00:51:00,
2013-01-07 19:56:00,27.5,23.9,30.31,South,180,0.0,0.0,86,0.00,,,0.00,meteohub,2013-01-08 00:56:00,
2013-01-07 20:01:00,27.1,23.5,30.30,South,180,0.0,0.0,86,0.00,,,0.00,meteohub,2013-01-08 01:01:00,
2013-01-07 20:06:00,27.0,23.4,30.31,West,270,0.0,0.0,86,0.00,,,0.00,meteohub,2013-01-08 01:06:00,
2013-01-07 20:11:00,26.8,23.4,30.31,South,180,0.0,0.0,87,0.00,,,0.00,meteohub,2013-01-08 01:11:00,
2013-01-07 20:16:00,26.8,23.4,30.31,South,180,0.0,0.0,87,0.00,,,0.00,meteohub,2013-01-08 01:16:00,
2013-01-07 20:21:00,26.8,23.4,30.31,South,180,0.0,0.0,87,0.00,,,0.00,meteohub,2013-01-08 01:21:00,
2013-01-07 20:26:00,26.6,23.5,30.31,West,270,0.0,0.0,88,0.00,,,0.00,meteohub,2013-01-08 01:26:00,
2013-01-07 20:31:00,26.4,23.4,30.31,West,270,0.0,0.0,88,0.00,,,0.00,meteohub,2013-01-08 01:31:00,
2013-01-07 20:36:00,26.4,23.4,30.31,South,180,0.0,0.0,88,0.00,,,0.00,meteohub,2013-01-08 01:36:00,
2013-01-07 20:41:00,26.1,23.0,30.31,South,180,0.0,0.0,88,0.00,,,0.00,meteohub,2013-01-08 01:41:00,
2013-01-07 20:46:00,25.9,23.0,30.31,South,180,0.0,0.0,89,0.00,,,0.00,meteohub,2013-01-08 01:46:00,
2013-01-07 20:51:00,25.7,23.0,30.31,NE,45,1.0,0.0,89,0.00,,,0.00,meteohub,2013-01-08 01:51:00,
2013-01-07 20:56:00,25.9,23.0,30.31,SW,225,0.0,1.0,89,0.00,,,0.00,meteohub,2013-01-08 01:56:00,
2013-01-07 21:01:00,25.9,23.4,30.31,South,180,0.0,1.0,90,0.00,,,0.00,meteohub,2013-01-08 02:01:00,
2013-01-07 21:06:00,25.9,23.9,30.31,South,180,2.0,2.0,92,0.00,,,0.00,meteohub,2013-01-08 02:06:00,
2013-01-07 21:11:00,25.9,23.9,30.30,South,180,0.0,2.0,92,0.00,,,0.00,meteohub,2013-01-08 02:11:00,
2013-01-07 21:16:00,25.9,23.9,30.30,North,0,1.0,2.0,92,0.00,,,0.00,meteohub,2013-01-08 02:16:00,
2013-01-07 21:21:00,25.7,23.4,30.30,West,270,0.0,2.0,91,0.00,,,0.00,meteohub,2013-01-08 02:21:00,
2013-01-07 21:26:00,25.7,23.4,30.30,West,270,0.0,1.0,91,0.00,,,0.00,meteohub,2013-01-08 02:26:00,
2013-01-07 21:31:00,25.5,23.2,30.30,South,180,2.0,2.0,91,0.00,,,0.00,meteohub,2013-01-08 02:31:00,
2013-01-07 21:36:00,25.5,23.7,30.30,South,180,0.0,2.0,93,0.00,,,0.00,meteohub,2013-01-08 02:36:00,
2013-01-07 21:41:00,25.2,23.2,30.30,South,180,0.0,2.0,92,0.00,,,0.00,meteohub,2013-01-08 02:41:00,
2013-01-07 21:46:00,25.2,23.2,30.30,South,180,0.0,2.0,92,0.00,,,0.00,meteohub,2013-01-08 02:46:00,
2013-01-07 21:51:00,25.0,23.2,30.30,North,0,0.0,0.0,93,0.00,,,0.00,meteohub,2013-01-08 02:51:00,
2013-01-07 21:56:00,25.0,23.0,30.30,SW,225,0.0,0.0,92,0.00,,,0.00,meteohub,2013-01-08 02:56:00,
2013-01-07 22:01:00,25.0,23.2,30.31,NW,315,0.0,1.0,93,0.00,,,0.00,meteohub,2013-01-08 03:01:00,
2013-01-07 22:06:00,25.0,23.2,30.31,South,180,0.0,1.0,93,0.00,,,0.00,meteohub,2013-01-08 03:06:00,
2013-01-07 22:11:00,24.8,23.0,30.31,South,180,0.0,1.0,93,0.00,,,0.00,meteohub,2013-01-08 03:11:00,
2013-01-07 22:16:00,24.8,23.4,30.31,South,180,0.0,1.0,94,0.00,,,0.00,meteohub,2013-01-08 03:16:00,
2013-01-07 22:21:00,24.8,23.4,30.31,SW,225,0.0,1.0,94,0.00,,,0.00,meteohub,2013-01-08 03:21:00,
2013-01-07 22:26:00,24.8,23.4,30.31,NE,45,0.0,1.0,94,0.00,,,0.00,meteohub,2013-01-08 03:26:00,
2013-01-07 22:31:00,24.6,23.2,30.31,NE,45,0.0,1.0,94,0.00,,,0.00,meteohub,2013-01-08 03:31:00,
2013-01-07 22:36:00,24.4,22.6,30.30,NE,45,0.0,0.0,93,0.00,,,0.00,meteohub,2013-01-08 03:36:00,
2013-01-07 22:41:00,24.4,23.0,30.31,South,180,0.0,0.0,94,0.00,,,0.00,meteohub,2013-01-08 03:41:00,
2013-01-07 22:46:00,24.6,23.4,30.30,SE,135,0.0,1.0,95,0.00,,,0.00,meteohub,2013-01-08 03:46:00,
2013-01-07 22:51:00,24.4,23.2,30.30,South,180,0.0,1.0,95,0.00,,,0.00,meteohub,2013-01-08 03:51:00,
2013-01-07 22:56:00,24.4,23.2,30.30,South,180,0.0,1.0,95,0.00,,,0.00,meteohub,2013-01-08 03:56:00,
2013-01-07 23:01:00,24.3,22.8,30.30,South,180,0.0,1.0,94,0.00,,,0.00,meteohub,2013-01-08 04:01:00,
2013-01-07 23:06:00,24.1,22.6,30.30,South,180,0.0,1.0,94,0.00,,,0.00,meteohub,2013-01-08 04:06:00,
2013-01-07 23:12:00,24.1,22.6,30.30,East,90,0.0,0.0,94,0.00,,,0.00,meteohub,2013-01-08 04:12:00,
2013-01-07 23:17:00,23.9,22.5,30.30,North,0,1.0,0.0,94,0.00,,,0.00,meteohub,2013-01-08 04:17:00,
2013-01-07 23:22:00,23.9,22.5,30.30,South,180,0.0,1.0,94,0.00,,,0.00,meteohub,2013-01-08 04:22:00,
2013-01-07 23:27:00,23.7,22.3,30.30,South,180,0.0,1.0,94,0.00,,,0.00,meteohub,2013-01-08 04:27:00,
2013-01-07 23:32:00,23.7,22.5,30.30,South,180,0.0,1.0,95,0.00,,,0.00,meteohub,2013-01-08 04:32:00,
2013-01-07 23:37:00,23.7,22.5,30.29,NE,45,0.0,1.0,95,0.00,,,0.00,meteohub,2013-01-08 04:37:00,
2013-01-07 23:42:00,23.7,22.5,30.30,North,0,1.0,1.0,95,0.00,,,0.00,meteohub,2013-01-08 04:42:00,
2013-01-07 23:47:00,23.5,22.3,30.29,North,0,0.0,1.0,95,0.00,,,0.00,meteohub,2013-01-08 04:47:00,
2013-01-07 23:52:00,23.4,22.1,30.30,South,180,0.0,1.0,95,0.00,,,0.00,meteohub,2013-01-08 04:52:00,
2013-01-07 23:57:00,23.4,22.5,30.30,South,180,0.0,1.0,96,0.00,,,0.00,meteohub,2013-01-08 04:57:00,